Airport ID:KCCB
Update Time (UTC):22/03/2018 13:49
Wind Speed (Knots):4
Wind Direction (Magnetic):280
Temperature (°C):16.2
Dew Point (°C):12.8
Humidity (%):81
Altimeter (inHg):30.01
Density Altitude (Feet):
Visibility (Miles):10
Clouds (Hundreds of feet):FEW041 SCT075 OVC095
Present Weather:
METAR:METAR KCCB 221345Z AUTO 25004KT 10SM FEW040 SCT075 OVC095 16/13 A3001 RMK AO2

The data displayed is for advisory purposes only and is not to be used for flight planning or operations.

This page is not automatically refreshed. Reload the page to see current data.